createdAt,value
2023-01-22T00:01:13.181Z,3.30
2023-01-22T00:04:16.679Z,5.78
2023-01-22T00:07:19.888Z,5.05
2023-01-22T00:10:22.409Z,4.05
2023-01-22T00:13:26.243Z,5.68
2023-01-22T00:16:29.009Z,3.55
2023-01-22T00:19:32.480Z,4.28
2023-01-22T00:22:35.277Z,4.57
2023-01-22T00:25:37.864Z,4.63
2023-01-22T00:28:41.977Z,4.57
2023-01-22T00:31:44.801Z,4.85
2023-01-22T00:34:52.457Z,4.03
2023-01-22T00:37:55.097Z,4.43
2023-01-22T00:41:04.630Z,4.10
2023-01-22T00:44:07.317Z,4.38
2023-01-22T00:47:10.011Z,3.85
2023-01-22T00:50:12.794Z,4.00
2023-01-22T00:53:15.435Z,4.18
2023-01-22T00:56:18.269Z,4.38
2023-01-22T00:59:20.977Z,5.22
2023-01-22T01:02:25.038Z,3.92
2023-01-22T01:05:28.677Z,5.18
2023-01-22T01:08:33.760Z,5.45
2023-01-22T01:11:36.824Z,5.32
2023-01-22T01:14:39.451Z,3.30
2023-01-22T01:17:42.132Z,4.25
2023-01-22T01:20:45.625Z,5.45
2023-01-22T01:23:50.448Z,6.10
2023-01-22T01:26:54.047Z,4.28
2023-01-22T01:29:56.571Z,4.45
2023-01-22T01:32:59.042Z,4.50
2023-01-22T01:36:06.277Z,3.40
2023-01-22T01:39:10.038Z,4.07
2023-01-22T01:42:12.654Z,3.72
2023-01-22T01:45:32.964Z,3.67
2023-01-22T01:48:42.649Z,5.00
2023-01-22T01:51:46.370Z,4.32
2023-01-22T01:54:52.261Z,5.35
2023-01-22T01:57:59.372Z,3.67
2023-01-22T02:01:09.409Z,4.15
2023-01-22T02:04:12.071Z,5.30
2023-01-22T02:07:14.687Z,4.05
2023-01-22T02:10:17.729Z,5.93
2023-01-22T02:13:24.934Z,4.43
2023-01-22T02:16:27.714Z,4.40
2023-01-22T02:19:31.099Z,4.65
2023-01-22T02:22:36.984Z,4.55
2023-01-22T02:25:39.490Z,4.70
2023-01-22T02:28:42.285Z,4.53
2023-01-22T02:31:45.333Z,3.35
2023-01-22T02:34:49.069Z,3.63
2023-01-22T02:37:51.681Z,4.90
2023-01-22T02:40:55.064Z,3.85
2023-01-22T02:43:57.781Z,5.00
2023-01-22T02:47:01.340Z,3.70
2023-01-22T02:50:04.903Z,4.68
2023-01-22T02:53:07.937Z,3.97
2023-01-22T02:56:11.371Z,4.63
2023-01-22T02:59:15.317Z,4.60
2023-01-22T03:02:18.437Z,5.03
2023-01-22T03:05:23.067Z,4.60
2023-01-22T03:08:26.983Z,4.22
2023-01-22T03:11:30.649Z,7.28
2023-01-22T03:14:58.716Z,4.90
2023-01-22T03:18:20.449Z,4.03
2023-01-22T03:21:23.038Z,3.65
2023-01-22T03:24:25.697Z,4.55
2023-01-22T03:27:30.091Z,5.00
2023-01-22T03:30:34.061Z,3.72
2023-01-22T03:33:36.773Z,5.28
2023-01-22T03:36:42.532Z,4.75
2023-01-22T03:39:46.312Z,4.38
2023-01-22T03:42:58.563Z,5.40
2023-01-22T03:46:09.621Z,4.57
2023-01-22T03:49:15.788Z,5.15
2023-01-22T03:52:18.996Z,3.95
2023-01-22T03:55:21.741Z,5.75
2023-01-22T03:58:24.662Z,5.43
2023-01-22T04:01:28.995Z,4.25
2023-01-22T04:04:33.068Z,4.78
2023-01-22T04:07:36.163Z,4.93
2023-01-22T04:10:38.975Z,4.72
2023-01-22T04:13:43.933Z,4.45
2023-01-22T04:16:47.097Z,4.53
2023-01-22T04:20:09.109Z,4.38
2023-01-22T04:23:32.670Z,4.65
2023-01-22T04:26:37.966Z,5.07
2023-01-22T04:29:40.759Z,4.63
2023-01-22T04:32:44.664Z,4.63
2023-01-22T04:36:13.833Z,4.10
2023-01-22T04:39:16.973Z,5.20
2023-01-22T04:42:20.126Z,4.07
2023-01-22T04:45:24.048Z,3.28
2023-01-22T04:48:27.209Z,4.65
2023-01-22T04:51:29.920Z,4.88
2023-01-22T04:54:32.713Z,3.53
2023-01-22T04:57:35.514Z,3.83
2023-01-22T05:00:38.272Z,4.80
2023-01-22T05:03:41.445Z,3.92
2023-01-22T05:06:45.196Z,3.90
2023-01-22T05:09:48.799Z,4.70
2023-01-22T05:12:52.181Z,3.95
2023-01-22T05:15:55.279Z,3.65
2023-01-22T05:19:00.122Z,5.30
2023-01-22T05:22:03.403Z,5.72
2023-01-22T05:25:08.318Z,3.42
2023-01-22T05:28:11.426Z,2.55
2023-01-22T05:31:29.710Z,4.63
2023-01-22T05:34:37.144Z,5.45
2023-01-22T05:37:40.532Z,3.75
2023-01-22T05:40:43.862Z,4.03
2023-01-22T05:43:47.007Z,4.07
2023-01-22T05:46:54.758Z,5.80
2023-01-22T05:50:10.070Z,4.72
2023-01-22T05:56:15.682Z,3.67
2023-01-22T05:59:18.449Z,4.00
2023-01-22T06:02:28.413Z,4.65
2023-01-22T06:05:31.990Z,3.78
2023-01-22T06:08:40.792Z,4.78
2023-01-22T06:11:43.539Z,3.85
2023-01-22T06:14:46.321Z,6.03
2023-01-22T06:17:49.044Z,4.57
2023-01-22T06:20:52.976Z,6.50
2023-01-22T06:23:55.839Z,4.80
2023-01-22T06:26:58.426Z,4.38
2023-01-22T06:30:11.483Z,4.38
2023-01-22T06:33:14.786Z,4.60
2023-01-22T06:36:18.776Z,3.67
2023-01-22T06:39:21.513Z,5.65
2023-01-22T06:42:39.132Z,4.65
2023-01-22T06:45:42.798Z,5.28
2023-01-22T06:48:48.999Z,4.95
2023-01-22T06:51:52.870Z,4.20
2023-01-22T06:54:55.733Z,4.65
2023-01-22T06:58:01.232Z,5.78
2023-01-22T07:01:06.080Z,4.35
2023-01-22T07:04:08.882Z,4.40
2023-01-22T07:07:11.633Z,5.13
2023-01-22T07:10:14.628Z,3.60
2023-01-22T07:13:17.429Z,4.50
2023-01-22T07:16:20.131Z,5.95
2023-01-22T07:19:23.458Z,4.78
2023-01-22T07:22:26.046Z,4.22
2023-01-22T07:25:29.379Z,4.00
2023-01-22T07:28:32.083Z,4.70
2023-01-22T07:31:34.963Z,5.35
2023-01-22T07:34:37.872Z,5.97
2023-01-22T07:37:40.479Z,3.25
2023-01-22T07:40:43.184Z,4.18
2023-01-22T07:43:46.035Z,5.82
2023-01-22T07:46:49.331Z,4.15
2023-01-22T07:49:52.071Z,4.60
2023-01-22T07:52:55.529Z,3.40
2023-01-22T07:55:58.194Z,5.10
2023-01-22T07:59:01.069Z,4.85
2023-01-22T08:02:03.887Z,4.70
2023-01-22T08:05:07.722Z,4.72
2023-01-22T08:08:14.810Z,5.40
2023-01-22T08:11:17.607Z,4.53
2023-01-22T08:14:21.036Z,3.72
2023-01-22T08:17:23.824Z,3.17
2023-01-22T08:20:26.799Z,3.75
2023-01-22T08:23:29.751Z,3.33
2023-01-22T08:26:33.028Z,2.88
2023-01-22T08:29:35.734Z,2.28
2023-01-22T08:32:41.882Z,3.45
2023-01-22T08:35:45.235Z,3.28
2023-01-22T08:38:48.004Z,3.90
2023-01-22T08:41:52.455Z,5.70
2023-01-22T08:44:55.584Z,3.25
2023-01-22T08:48:00.202Z,2.78
2023-01-22T08:51:03.991Z,4.13
2023-01-22T08:54:07.047Z,2.88
2023-01-22T08:57:10.040Z,5.35
2023-01-22T09:00:13.355Z,2.88
2023-01-22T09:03:16.108Z,4.22
2023-01-22T09:06:19.789Z,2.97
2023-01-22T09:09:22.896Z,2.88
2023-01-22T09:12:26.309Z,3.78
2023-01-22T09:15:29.121Z,3.28
2023-01-22T09:18:32.361Z,3.05
2023-01-22T09:21:37.555Z,3.28
2023-01-22T09:24:40.857Z,3.40
2023-01-22T09:27:43.784Z,3.85
2023-01-22T09:30:47.009Z,3.45
2023-01-22T09:33:51.424Z,4.05
2023-01-22T09:36:55.020Z,3.08
2023-01-22T09:39:57.733Z,2.92
2023-01-22T09:43:05.922Z,4.15
2023-01-22T09:46:14.496Z,3.60
2023-01-22T09:49:20.886Z,4.07
2023-01-22T09:52:28.375Z,3.40
2023-01-22T09:55:36.504Z,4.18
2023-01-22T09:58:40.404Z,4.63
2023-01-22T10:01:48.218Z,2.92
2023-01-22T10:04:57.504Z,2.85
2023-01-22T10:08:15.934Z,3.88
2023-01-22T10:11:19.130Z,4.57
2023-01-22T10:14:23.612Z,4.40
2023-01-22T10:17:32.166Z,4.00
2023-01-22T10:20:35.095Z,2.90
2023-01-22T10:23:38.241Z,4.00
2023-01-22T10:26:47.258Z,3.85
2023-01-22T10:29:59.918Z,3.25
2023-01-22T10:33:07.132Z,2.97
2023-01-22T10:36:15.173Z,3.13
2023-01-22T10:39:18.981Z,3.83
2023-01-22T10:42:24.438Z,3.60
2023-01-22T10:45:27.807Z,3.38
2023-01-22T10:48:30.895Z,3.63
2023-01-22T10:51:39.967Z,4.15
2023-01-22T10:54:47.307Z,4.38
2023-01-22T10:57:55.184Z,3.70
2023-01-22T11:01:01.407Z,3.85
2023-01-22T11:04:31.590Z,3.53
2023-01-22T11:07:35.332Z,3.38
2023-01-22T11:10:52.434Z,3.60
2023-01-22T11:14:02.302Z,2.88
2023-01-22T11:17:15.967Z,2.70
2023-01-22T11:20:39.222Z,2.67
2023-01-22T11:24:00.266Z,3.38
2023-01-22T11:27:14.916Z,3.88
2023-01-22T11:30:32.733Z,3.05
2023-01-22T11:33:54.578Z,2.80
2023-01-22T11:37:06.546Z,3.85
2023-01-22T11:40:16.215Z,3.03
2023-01-22T11:43:46.221Z,3.67
2023-01-22T11:47:15.628Z,2.97
2023-01-22T11:50:47.050Z,3.78
2023-01-22T11:54:06.095Z,3.38
2023-01-22T11:57:21.358Z,2.80
2023-01-22T12:00:47.032Z,3.80
2023-01-22T12:04:15.907Z,2.50
2023-01-22T12:07:31.057Z,3.35
2023-01-22T12:10:36.637Z,3.67
2023-01-22T12:14:01.320Z,3.72
2023-01-22T12:17:13.378Z,2.00
2023-01-22T12:20:19.924Z,3.33
2023-01-22T12:23:31.728Z,2.95
2023-01-22T12:26:38.670Z,2.95
2023-01-22T12:29:46.042Z,4.07
2023-01-22T12:32:56.847Z,3.88
2023-01-22T12:36:03.262Z,2.72
2023-01-22T12:39:28.055Z,1.47
2023-01-22T12:42:42.029Z,2.40
2023-01-22T12:46:05.663Z,2.95
2023-01-22T12:49:12.126Z,3.10
2023-01-22T12:52:32.573Z,2.70
2023-01-22T12:55:38.620Z,3.22
2023-01-22T12:58:42.531Z,2.75
2023-01-22T13:01:45.711Z,3.38
2023-01-22T13:04:48.709Z,2.88
2023-01-22T13:08:03.504Z,2.08
2023-01-22T13:11:12.496Z,3.10
2023-01-22T13:14:20.290Z,3.65
2023-01-22T13:17:28.729Z,3.20
2023-01-22T13:20:37.474Z,2.92
2023-01-22T13:23:48.521Z,2.83
2023-01-22T13:27:03.512Z,2.70
2023-01-22T13:30:19.353Z,2.33
2023-01-22T13:33:23.543Z,3.38
2023-01-22T13:36:28.069Z,3.28
2023-01-22T13:39:32.885Z,2.53
2023-01-22T13:42:36.086Z,3.38
2023-01-22T13:45:40.376Z,3.22
2023-01-22T13:48:43.590Z,2.90
2023-01-22T13:51:46.546Z,3.03
2023-01-22T13:54:59.971Z,2.25
2023-01-22T13:58:04.651Z,3.58
2023-01-22T14:01:12.303Z,3.05
2023-01-22T14:04:37.876Z,2.78
2023-01-22T14:07:44.449Z,3.53
2023-01-22T14:10:57.437Z,2.58
2023-01-22T14:14:00.865Z,2.60
2023-01-22T14:17:03.675Z,2.50
2023-01-22T14:20:07.505Z,2.90
2023-01-22T14:23:10.822Z,2.92
2023-01-22T14:26:13.901Z,3.90
2023-01-22T14:29:17.891Z,3.25
2023-01-22T14:32:22.032Z,2.70
2023-01-22T14:35:26.981Z,2.55
2023-01-22T14:38:30.569Z,4.05
2023-01-22T14:41:35.969Z,3.83
2023-01-22T14:44:39.064Z,2.80
2023-01-22T14:47:42.135Z,2.92
2023-01-22T14:50:50.465Z,3.85
2023-01-22T14:53:54.246Z,4.03
2023-01-22T14:57:00.107Z,3.72
2023-01-22T15:00:04.982Z,4.78
2023-01-22T15:03:08.337Z,3.75
2023-01-22T15:06:11.314Z,4.32
2023-01-22T15:09:14.874Z,4.72
2023-01-22T15:12:17.814Z,4.15
2023-01-22T15:15:26.750Z,3.70
2023-01-22T15:18:30.080Z,4.55
2023-01-22T15:21:33.370Z,3.80
2023-01-22T15:24:36.445Z,3.95
2023-01-22T15:27:39.426Z,3.85
2023-01-22T15:30:47.206Z,4.22
2023-01-22T15:33:50.748Z,3.90
2023-01-22T15:36:54.393Z,3.88
2023-01-22T15:39:58.386Z,6.28
2023-01-22T15:43:03.589Z,8.05
2023-01-22T15:46:06.660Z,9.20
2023-01-22T15:49:11.211Z,3.92
2023-01-22T15:52:14.625Z,3.25
2023-01-22T15:55:17.801Z,4.15
2023-01-22T15:58:21.087Z,3.63
2023-01-22T16:01:25.962Z,3.67
2023-01-22T16:04:28.839Z,3.20
2023-01-22T16:07:31.465Z,4.43
2023-01-22T16:10:34.268Z,3.58
2023-01-22T16:13:37.540Z,4.10
2023-01-22T16:16:40.593Z,5.05
2023-01-22T16:19:43.370Z,4.80
2023-01-22T16:22:46.700Z,3.85
2023-01-22T16:25:49.792Z,4.95
2023-01-22T16:28:56.915Z,4.15
2023-01-22T16:31:59.757Z,4.57
2023-01-22T16:35:02.472Z,4.13
2023-01-22T16:38:05.840Z,5.20
2023-01-22T16:41:30.925Z,4.60
2023-01-22T16:44:34.382Z,3.67
2023-01-22T16:47:37.833Z,4.63
2023-01-22T16:50:40.848Z,3.47
2023-01-22T16:53:44.216Z,4.32
2023-01-22T16:56:47.842Z,4.60
2023-01-22T16:59:51.044Z,4.78
2023-01-22T17:02:54.615Z,4.32
2023-01-22T17:05:58.656Z,4.85
2023-01-22T17:09:01.880Z,4.82
2023-01-22T17:12:06.171Z,4.65
2023-01-22T17:15:09.709Z,4.18
2023-01-22T17:18:12.773Z,4.07
2023-01-22T17:21:18.331Z,4.60
2023-01-22T17:24:22.653Z,4.78
2023-01-22T17:27:26.340Z,4.63
2023-01-22T17:30:29.473Z,5.43
2023-01-22T17:33:32.259Z,4.32
2023-01-22T17:36:35.418Z,4.18
2023-01-22T17:39:39.033Z,4.88
2023-01-22T17:42:41.989Z,4.20
2023-01-22T17:45:45.064Z,4.57
2023-01-22T17:48:49.049Z,6.80
2023-01-22T17:51:52.747Z,4.20
2023-01-22T17:54:55.491Z,3.65
2023-01-22T17:58:00.228Z,4.82
2023-01-22T18:01:08.163Z,4.03
2023-01-22T18:04:12.321Z,4.40
2023-01-22T18:07:15.713Z,4.03
2023-01-22T18:10:18.819Z,3.95
2023-01-22T18:13:21.779Z,4.97
2023-01-22T18:16:26.715Z,4.38
2023-01-22T18:19:29.632Z,4.40
2023-01-22T18:22:33.925Z,5.72
2023-01-22T18:25:47.017Z,4.68
2023-01-22T18:28:51.035Z,4.72
2023-01-22T18:31:54.750Z,5.20
2023-01-22T18:34:57.604Z,4.63
2023-01-22T18:38:01.683Z,4.45
2023-01-22T18:41:11.084Z,4.22
2023-01-22T18:44:15.461Z,3.92
2023-01-22T18:47:18.371Z,4.30
2023-01-22T18:50:23.828Z,3.85
2023-01-22T18:53:27.672Z,5.10
2023-01-22T18:56:30.651Z,4.13
2023-01-22T18:59:33.832Z,4.03
2023-01-22T19:02:38.311Z,3.90
2023-01-22T19:05:41.874Z,4.60
2023-01-22T19:08:49.634Z,4.32
2023-01-22T19:11:53.578Z,3.78
2023-01-22T19:14:56.524Z,3.50
2023-01-22T19:18:00.130Z,5.28
2023-01-22T19:21:08.466Z,4.50
2023-01-22T19:24:12.039Z,3.42
2023-01-22T19:27:17.369Z,4.22
2023-01-22T19:30:23.905Z,3.33
2023-01-22T19:33:28.369Z,2.90
2023-01-22T19:36:33.675Z,2.65
2023-01-22T19:39:37.412Z,4.38
2023-01-22T19:42:43.408Z,4.55
2023-01-22T19:45:46.649Z,5.03
2023-01-22T19:48:50.347Z,5.03
2023-01-22T19:51:53.507Z,3.55
2023-01-22T19:54:56.601Z,3.42
2023-01-22T19:58:00.026Z,5.85
2023-01-22T20:01:08.975Z,5.47
2023-01-22T20:04:22.218Z,5.03
2023-01-22T20:07:26.144Z,4.80
2023-01-22T20:10:30.149Z,4.50
2023-01-22T20:13:33.761Z,4.80
2023-01-22T20:16:36.863Z,4.70
2023-01-22T20:19:42.424Z,5.10
2023-01-22T20:22:45.219Z,5.75
2023-01-22T20:25:48.363Z,4.35
2023-01-22T20:28:51.757Z,4.57
2023-01-22T20:31:54.937Z,5.45
2023-01-22T20:34:57.823Z,5.82
2023-01-22T20:38:00.676Z,6.65
2023-01-22T20:41:09.676Z,6.30
2023-01-22T20:44:12.913Z,5.40
2023-01-22T20:47:15.827Z,6.93
2023-01-22T20:50:18.987Z,5.75
2023-01-22T20:53:23.060Z,6.22
2023-01-22T20:56:30.702Z,6.45
2023-01-22T20:59:33.416Z,6.28
2023-01-22T21:02:36.278Z,6.43
2023-01-22T21:05:40.323Z,5.85
2023-01-22T21:08:51.729Z,7.32
2023-01-22T21:11:55.431Z,7.20
2023-01-22T21:14:58.120Z,6.55
2023-01-22T21:18:01.023Z,6.43
2023-01-22T21:21:07.052Z,6.90
2023-01-22T21:24:09.882Z,8.38
2023-01-22T21:27:12.719Z,7.38
2023-01-22T21:30:17.086Z,6.20
2023-01-22T21:33:19.938Z,6.30
2023-01-22T21:36:23.183Z,5.72
2023-01-22T21:39:29.114Z,5.50
2023-01-22T21:42:52.135Z,4.88
2023-01-22T21:46:15.492Z,6.18
2023-01-22T21:49:22.827Z,5.43
2023-01-22T21:52:29.774Z,3.75
2023-01-22T21:55:32.772Z,5.60
2023-01-22T21:58:36.923Z,4.50
2023-01-22T22:01:40.259Z,5.07
2023-01-22T22:04:43.118Z,5.70
2023-01-22T22:07:46.245Z,5.60
2023-01-22T22:10:50.688Z,4.10
2023-01-22T22:13:54.157Z,5.20
2023-01-22T22:16:57.254Z,5.93
2023-01-22T22:20:00.179Z,4.53
2023-01-22T22:23:03.593Z,5.28
2023-01-22T22:26:08.232Z,4.65
2023-01-22T22:29:11.213Z,4.78
2023-01-22T22:32:14.299Z,5.78
2023-01-22T22:35:17.442Z,5.35
2023-01-22T22:38:20.171Z,5.18
2023-01-22T22:41:28.961Z,4.90
2023-01-22T22:44:31.747Z,5.03
2023-01-22T22:47:36.283Z,5.63
2023-01-22T22:50:41.322Z,5.63
2023-01-22T22:53:44.329Z,5.53
2023-01-22T22:56:48.780Z,6.50
2023-01-22T22:59:51.683Z,5.88
2023-01-22T23:02:54.422Z,6.38
2023-01-22T23:05:57.238Z,6.70
2023-01-22T23:09:00.268Z,6.30
2023-01-22T23:12:03.624Z,5.70
2023-01-22T23:15:07.034Z,7.13
2023-01-22T23:18:09.978Z,7.53
2023-01-22T23:21:19.257Z,7.45
2023-01-22T23:24:22.762Z,7.32
2023-01-22T23:27:25.712Z,7.38
2023-01-22T23:30:28.651Z,8.13
2023-01-22T23:33:32.087Z,7.18
2023-01-22T23:36:36.288Z,7.13
2023-01-22T23:39:38.865Z,7.05
2023-01-22T23:42:41.485Z,8.15
2023-01-22T23:45:44.424Z,9.75
2023-01-22T23:48:47.283Z,9.63
2023-01-22T23:51:50.174Z,11.10
2023-01-22T23:54:52.855Z,10.00
2023-01-22T23:57:55.500Z,8.32
